sensor_id;sensor_type;location;lat;lon;timestamp;pressure;altitude;pressure_sealevel;temperature;humidity
19526;BME280;9907;42.676;26.348;2023-01-23T00:00:51;99775.16;;;9.23;100.00
19526;BME280;9907;42.676;26.348;2023-01-23T00:03:16;99785.28;;;9.18;100.00
19526;BME280;9907;42.676;26.348;2023-01-23T00:05:43;99789.44;;;9.22;100.00
19526;BME280;9907;42.676;26.348;2023-01-23T00:08:08;99787.00;;;9.19;100.00
19526;BME280;9907;42.676;26.348;2023-01-23T00:10:34;99789.88;;;9.16;100.00
19526;BME280;9907;42.676;26.348;2023-01-23T00:12:59;99786.47;;;9.14;100.00
19526;BME280;9907;42.676;26.348;2023-01-23T00:15:25;99786.47;;;9.14;100.00
19526;BME280;9907;42.676;26.348;2023-01-23T00:17:51;99800.09;;;9.09;100.00
19526;BME280;9907;42.676;26.348;2023-01-23T00:20:17;99793.41;;;9.04;100.00
19526;BME280;9907;42.676;26.348;2023-01-23T00:22:42;99798.66;;;9.05;100.00
19526;BME280;9907;42.676;26.348;2023-01-23T00:25:08;99802.03;;;9.07;100.00
19526;BME280;9907;42.676;26.348;2023-01-23T00:27:34;99794.81;;;8.97;100.00
19526;BME280;9907;42.676;26.348;2023-01-23T00:29:59;99802.69;;;8.98;100.00
19526;BME280;9907;42.676;26.348;2023-01-23T00:32:24;99796.06;;;9.04;100.00
19526;BME280;9907;42.676;26.348;2023-01-23T00:34:51;99797.34;;;8.98;100.00
19526;BME280;9907;42.676;26.348;2023-01-23T00:37:17;99805.03;;;9.03;100.00
19526;BME280;9907;42.676;26.348;2023-01-23T00:39:42;99800.78;;;9.00;100.00
19526;BME280;9907;42.676;26.348;2023-01-23T00:42:09;99807.59;;;9.04;100.00
19526;BME280;9907;42.676;26.348;2023-01-23T00:44:35;99812.06;;;9.04;100.00
19526;BME280;9907;42.676;26.348;2023-01-23T00:47:00;99813.97;;;9.02;100.00
19526;BME280;9907;42.676;26.348;2023-01-23T00:49:25;99815.69;;;9.03;100.00
19526;BME280;9907;42.676;26.348;2023-01-23T00:51:51;99821.88;;;9.03;100.00
19526;BME280;9907;42.676;26.348;2023-01-23T00:54:18;99821.56;;;8.95;100.00
19526;BME280;9907;42.676;26.348;2023-01-23T00:56:46;99825.09;;;8.96;100.00
19526;BME280;9907;42.676;26.348;2023-01-23T00:59:12;99824.97;;;8.97;100.00
19526;BME280;9907;42.676;26.348;2023-01-23T01:01:38;99823.19;;;8.98;100.00
19526;BME280;9907;42.676;26.348;2023-01-23T01:04:03;99838.72;;;8.91;100.00
19526;BME280;9907;42.676;26.348;2023-01-23T01:06:29;99826.03;;;8.95;100.00
19526;BME280;9907;42.676;26.348;2023-01-23T01:08:56;99837.44;;;8.97;100.00
19526;BME280;9907;42.676;26.348;2023-01-23T01:11:22;99843.72;;;8.96;100.00
19526;BME280;9907;42.676;26.348;2023-01-23T01:13:47;99846.06;;;8.88;100.00
19526;BME280;9907;42.676;26.348;2023-01-23T01:16:13;99851.31;;;8.89;100.00
19526;BME280;9907;42.676;26.348;2023-01-23T01:18:39;99861.44;;;8.84;100.00
19526;BME280;9907;42.676;26.348;2023-01-23T01:21:09;99861.63;;;8.81;100.00
19526;BME280;9907;42.676;26.348;2023-01-23T01:23:36;99866.34;;;8.77;100.00
19526;BME280;9907;42.676;26.348;2023-01-23T01:26:02;99844.19;;;8.64;100.00
19526;BME280;9907;42.676;26.348;2023-01-23T01:28:29;99862.59;;;8.55;100.00
19526;BME280;9907;42.676;26.348;2023-01-23T01:30:56;99843.84;;;8.56;100.00
19526;BME280;9907;42.676;26.348;2023-01-23T01:33:22;99852.81;;;8.68;100.00
19526;BME280;9907;42.676;26.348;2023-01-23T01:35:49;99856.50;;;8.65;100.00
19526;BME280;9907;42.676;26.348;2023-01-23T01:38:15;99855.56;;;8.66;100.00
19526;BME280;9907;42.676;26.348;2023-01-23T01:40:40;99861.53;;;8.70;100.00
19526;BME280;9907;42.676;26.348;2023-01-23T01:43:08;99865.66;;;8.61;100.00
19526;BME280;9907;42.676;26.348;2023-01-23T01:46:12;99866.84;;;8.57;100.00
19526;BME280;9907;42.676;26.348;2023-01-23T01:54:12;99859.16;;;8.40;100.00
19526;BME280;9907;42.676;26.348;2023-01-23T01:56:43;99857.78;;;8.35;100.00
19526;BME280;9907;42.676;26.348;2023-01-23T01:59:12;99865.13;;;8.31;100.00
19526;BME280;9907;42.676;26.348;2023-01-23T02:01:39;99873.38;;;8.26;100.00
19526;BME280;9907;42.676;26.348;2023-01-23T02:04:07;99865.84;;;8.33;100.00
19526;BME280;9907;42.676;26.348;2023-01-23T02:06:33;99865.38;;;8.26;100.00
19526;BME280;9907;42.676;26.348;2023-01-23T02:09:24;99872.97;;;8.06;100.00
19526;BME280;9907;42.676;26.348;2023-01-23T02:11:49;99874.91;;;8.04;100.00
19526;BME280;9907;42.676;26.348;2023-01-23T02:14:14;99878.50;;;8.03;100.00
19526;BME280;9907;42.676;26.348;2023-01-23T02:16:40;99873.09;;;8.04;100.00
19526;BME280;9907;42.676;26.348;2023-01-23T02:19:39;99872.97;;;8.06;100.00
19526;BME280;9907;42.676;26.348;2023-01-23T02:27:28;99862.00;;;7.98;100.00
19526;BME280;9907;42.676;26.348;2023-01-23T02:29:53;99872.22;;;8.04;100.00
19526;BME280;9907;42.676;26.348;2023-01-23T02:32:21;99868.84;;;8.02;100.00
19526;BME280;9907;42.676;26.348;2023-01-23T02:34:50;99867.63;;;7.93;100.00
19526;BME280;9907;42.676;26.348;2023-01-23T02:37:17;99866.16;;;8.02;100.00
19526;BME280;9907;42.676;26.348;2023-01-23T02:39:44;99860.50;;;7.94;100.00
19526;BME280;9907;42.676;26.348;2023-01-23T02:42:10;99864.97;;;7.93;100.00
19526;BME280;9907;42.676;26.348;2023-01-23T02:44:35;99867.50;;;7.95;100.00
19526;BME280;9907;42.676;26.348;2023-01-23T02:47:04;99871.13;;;7.94;100.00
19526;BME280;9907;42.676;26.348;2023-01-23T02:49:32;99869.06;;;7.84;100.00
19526;BME280;9907;42.676;26.348;2023-01-23T02:51:58;99877.47;;;7.78;100.00
19526;BME280;9907;42.676;26.348;2023-01-23T02:54:23;99873.00;;;7.79;100.00
19526;BME280;9907;42.676;26.348;2023-01-23T02:56:49;99880.84;;;7.80;100.00
19526;BME280;9907;42.676;26.348;2023-01-23T02:59:15;99874.50;;;7.83;100.00
19526;BME280;9907;42.676;26.348;2023-01-23T03:01:59;99878.75;;;7.86;100.00
19526;BME280;9907;42.676;26.348;2023-01-23T03:04:25;99884.56;;;7.78;100.00
19526;BME280;9907;42.676;26.348;2023-01-23T03:06:51;99889.53;;;7.70;100.00
19526;BME280;9907;42.676;26.348;2023-01-23T03:09:17;99887.81;;;7.83;100.00
19526;BME280;9907;42.676;26.348;2023-01-23T03:11:44;99885.94;;;7.71;100.00
19526;BME280;9907;42.676;26.348;2023-01-23T03:14:16;99897.22;;;7.74;100.00
19526;BME280;9907;42.676;26.348;2023-01-23T03:16:43;99899.53;;;7.66;100.00
19526;BME280;9907;42.676;26.348;2023-01-23T03:19:14;99897.44;;;7.71;100.00
19526;BME280;9907;42.676;26.348;2023-01-23T03:21:39;99903.78;;;7.69;100.00
19526;BME280;9907;42.676;26.348;2023-01-23T03:24:09;99911.00;;;7.67;100.00
19526;BME280;9907;42.676;26.348;2023-01-23T03:26:42;99907.00;;;7.74;100.00
19526;BME280;9907;42.676;26.348;2023-01-23T03:29:23;99914.50;;;7.81;100.00
19526;BME280;9907;42.676;26.348;2023-01-23T03:32:08;99915.75;;;7.76;100.00
19526;BME280;9907;42.676;26.348;2023-01-23T03:34:34;99923.22;;;7.83;100.00
19526;BME280;9907;42.676;26.348;2023-01-23T03:37:00;99924.84;;;7.86;100.00
19526;BME280;9907;42.676;26.348;2023-01-23T03:39:27;99919.06;;;7.79;100.00
19526;BME280;9907;42.676;26.348;2023-01-23T03:42:11;99930.84;;;7.75;100.00
19526;BME280;9907;42.676;26.348;2023-01-23T03:44:37;99923.81;;;7.74;100.00
19526;BME280;9907;42.676;26.348;2023-01-23T03:47:03;99921.25;;;7.73;100.00
19526;BME280;9907;42.676;26.348;2023-01-23T03:49:28;99922.56;;;7.80;100.00
19526;BME280;9907;42.676;26.348;2023-01-23T03:51:54;99926.00;;;7.82;100.00
19526;BME280;9907;42.676;26.348;2023-01-23T03:54:19;99919.41;;;7.88;100.00
19526;BME280;9907;42.676;26.348;2023-01-23T03:56:45;99920.47;;;7.85;100.00
19526;BME280;9907;42.676;26.348;2023-01-23T03:59:10;99925.78;;;7.85;100.00
19526;BME280;9907;42.676;26.348;2023-01-23T04:01:36;99918.47;;;7.89;100.00
19526;BME280;9907;42.676;26.348;2023-01-23T04:04:02;99917.41;;;7.91;100.00
19526;BME280;9907;42.676;26.348;2023-01-23T04:06:28;99921.56;;;7.95;100.00
19526;BME280;9907;42.676;26.348;2023-01-23T04:08:53;99934.78;;;7.97;100.00
19526;BME280;9907;42.676;26.348;2023-01-23T04:11:21;99918.25;;;7.92;100.00
19526;BME280;9907;42.676;26.348;2023-01-23T04:13:46;99931.84;;;8.01;100.00
19526;BME280;9907;42.676;26.348;2023-01-23T04:16:12;99926.03;;;7.95;100.00
19526;BME280;9907;42.676;26.348;2023-01-23T04:18:38;99931.56;;;7.92;100.00
19526;BME280;9907;42.676;26.348;2023-01-23T04:21:04;99932.00;;;7.98;100.00
19526;BME280;9907;42.676;26.348;2023-01-23T04:23:29;99927.09;;;7.92;100.00
19526;BME280;9907;42.676;26.348;2023-01-23T04:25:55;99932.13;;;7.97;100.00
19526;BME280;9907;42.676;26.348;2023-01-23T04:28:21;99928.69;;;7.95;100.00
19526;BME280;9907;42.676;26.348;2023-01-23T04:30:51;99924.78;;;8.00;100.00
19526;BME280;9907;42.676;26.348;2023-01-23T04:33:17;99925.75;;;7.99;100.00
19526;BME280;9907;42.676;26.348;2023-01-23T04:36:02;99929.06;;;8.03;100.00
19526;BME280;9907;42.676;26.348;2023-01-23T04:38:28;99934.16;;;8.06;100.00
19526;BME280;9907;42.676;26.348;2023-01-23T04:40:54;99941.22;;;8.07;100.00
19526;BME280;9907;42.676;26.348;2023-01-23T04:43:20;99948.66;;;8.02;100.00
19526;BME280;9907;42.676;26.348;2023-01-23T04:45:51;99952.25;;;8.01;100.00
19526;BME280;9907;42.676;26.348;2023-01-23T04:48:17;99946.94;;;8.01;100.00
19526;BME280;9907;42.676;26.348;2023-01-23T04:50:43;99949.97;;;8.09;100.00
19526;BME280;9907;42.676;26.348;2023-01-23T04:53:08;99952.72;;;8.07;100.00
19526;BME280;9907;42.676;26.348;2023-01-23T04:55:34;99953.44;;;8.09;100.00
19526;BME280;9907;42.676;26.348;2023-01-23T04:58:00;99947.59;;;8.04;100.00
19526;BME280;9907;42.676;26.348;2023-01-23T05:00:27;99963.28;;;8.09;100.00
19526;BME280;9907;42.676;26.348;2023-01-23T05:02:54;99954.44;;;8.08;100.00
19526;BME280;9907;42.676;26.348;2023-01-23T05:05:20;99955.94;;;8.12;100.00
19526;BME280;9907;42.676;26.348;2023-01-23T05:07:46;99961.13;;;8.14;100.00
19526;BME280;9907;42.676;26.348;2023-01-23T05:10:13;99951.06;;;8.19;100.00
19526;BME280;9907;42.676;26.348;2023-01-23T05:12:39;99967.97;;;8.18;100.00
19526;BME280;9907;42.676;26.348;2023-01-23T05:15:05;99965.97;;;8.21;100.00
19526;BME280;9907;42.676;26.348;2023-01-23T05:17:31;99967.78;;;8.21;100.00
19526;BME280;9907;42.676;26.348;2023-01-23T05:19:56;99972.34;;;8.19;100.00
19526;BME280;9907;42.676;26.348;2023-01-23T05:22:22;99975.31;;;8.14;100.00
19526;BME280;9907;42.676;26.348;2023-01-23T05:24:47;99983.50;;;8.11;100.00
19526;BME280;9907;42.676;26.348;2023-01-23T05:27:13;99991.69;;;8.08;100.00
19526;BME280;9907;42.676;26.348;2023-01-23T05:29:38;99994.06;;;8.13;100.00
19526;BME280;9907;42.676;26.348;2023-01-23T05:32:04;99994.06;;;8.13;100.00
19526;BME280;9907;42.676;26.348;2023-01-23T05:34:30;99994.06;;;8.13;100.00
19526;BME280;9907;42.676;26.348;2023-01-23T05:36:55;99997.66;;;8.12;100.00
19526;BME280;9907;42.676;26.348;2023-01-23T05:39:21;100005.00;;;8.08;100.00
19526;BME280;9907;42.676;26.348;2023-01-23T05:41:46;99997.09;;;8.07;100.00
19526;BME280;9907;42.676;26.348;2023-01-23T05:44:12;99999.94;;;8.04;100.00
19526;BME280;9907;42.676;26.348;2023-01-23T05:46:38;99991.22;;;8.02;100.00
19526;BME280;9907;42.676;26.348;2023-01-23T05:49:03;100000.34;;;7.98;100.00
19526;BME280;9907;42.676;26.348;2023-01-23T05:51:29;100005.69;;;7.98;100.00
19526;BME280;9907;42.676;26.348;2023-01-23T05:54:02;99999.28;;;8.00;100.00
19526;BME280;9907;42.676;26.348;2023-01-23T05:56:27;100012.47;;;8.16;100.00
19526;BME280;9907;42.676;26.348;2023-01-23T05:58:53;100015.88;;;8.18;100.00
19526;BME280;9907;42.676;26.348;2023-01-23T06:01:19;100017.59;;;8.19;100.00
19526;BME280;9907;42.676;26.348;2023-01-23T06:03:45;100027.31;;;8.20;100.00
19526;BME280;9907;42.676;26.348;2023-01-23T06:06:10;100023.88;;;8.18;100.00
19526;BME280;9907;42.676;26.348;2023-01-23T06:08:36;100034.31;;;8.21;100.00
19526;BME280;9907;42.676;26.348;2023-01-23T06:11:01;100022.63;;;8.23;100.00
19526;BME280;9907;42.676;26.348;2023-01-23T06:13:27;100038.97;;;8.17;100.00
19526;BME280;9907;42.676;26.348;2023-01-23T06:15:53;100036.44;;;8.16;100.00
19526;BME280;9907;42.676;26.348;2023-01-23T06:18:19;100029.41;;;8.15;100.00
19526;BME280;9907;42.676;26.348;2023-01-23T06:20:45;100038.81;;;8.06;100.00
19526;BME280;9907;42.676;26.348;2023-01-23T06:23:11;100034.06;;;8.11;100.00
19526;BME280;9907;42.676;26.348;2023-01-23T06:25:36;100047.75;;;8.19;100.00
19526;BME280;9907;42.676;26.348;2023-01-23T06:28:02;100043.28;;;8.20;100.00
19526;BME280;9907;42.676;26.348;2023-01-23T06:30:28;100046.75;;;8.20;100.00
19526;BME280;9907;42.676;26.348;2023-01-23T06:32:54;100050.28;;;8.21;100.00
19526;BME280;9907;42.676;26.348;2023-01-23T06:35:19;100041.75;;;8.16;100.00
19526;BME280;9907;42.676;26.348;2023-01-23T06:37:45;100054.78;;;8.06;100.00
19526;BME280;9907;42.676;26.348;2023-01-23T06:40:11;100052.78;;;8.10;100.00
19526;BME280;9907;42.676;26.348;2023-01-23T06:42:40;100059.63;;;8.14;100.00
19526;BME280;9907;42.676;26.348;2023-01-23T06:45:07;100071.97;;;8.15;100.00
19526;BME280;9907;42.676;26.348;2023-01-23T06:47:33;100069.31;;;8.15;100.00
19526;BME280;9907;42.676;26.348;2023-01-23T06:49:59;100060.84;;;8.22;100.00
19526;BME280;9907;42.676;26.348;2023-01-23T06:52:26;100081.31;;;8.08;100.00
19526;BME280;9907;42.676;26.348;2023-01-23T06:54:51;100084.06;;;8.06;100.00
19526;BME280;9907;42.676;26.348;2023-01-23T06:57:17;100074.06;;;8.10;100.00
19526;BME280;9907;42.676;26.348;2023-01-23T06:59:42;100072.47;;;8.07;100.00
19526;BME280;9907;42.676;26.348;2023-01-23T07:02:09;100078.06;;;8.03;100.00
19526;BME280;9907;42.676;26.348;2023-01-23T07:04:35;100082.06;;;7.96;100.00
19526;BME280;9907;42.676;26.348;2023-01-23T07:07:00;100085.50;;;7.98;100.00
19526;BME280;9907;42.676;26.348;2023-01-23T07:09:26;100074.94;;;7.96;100.00
19526;BME280;9907;42.676;26.348;2023-01-23T07:11:51;100070.00;;;8.04;100.00
19526;BME280;9907;42.676;26.348;2023-01-23T07:14:17;100085.84;;;8.06;100.00
19526;BME280;9907;42.676;26.348;2023-01-23T07:16:42;100087.09;;;8.00;100.00
19526;BME280;9907;42.676;26.348;2023-01-23T07:19:08;100090.16;;;7.94;100.00
19526;BME280;9907;42.676;26.348;2023-01-23T07:21:33;100089.31;;;7.94;100.00
19526;BME280;9907;42.676;26.348;2023-01-23T07:23:58;100095.84;;;7.88;100.00
19526;BME280;9907;42.676;26.348;2023-01-23T07:26:24;100085.47;;;7.83;100.00
19526;BME280;9907;42.676;26.348;2023-01-23T07:28:50;100090.44;;;7.90;100.00
19526;BME280;9907;42.676;26.348;2023-01-23T07:31:15;100096.91;;;7.86;100.00
19526;BME280;9907;42.676;26.348;2023-01-23T07:33:40;100090.31;;;7.91;100.00
19526;BME280;9907;42.676;26.348;2023-01-23T07:36:07;100094.03;;;7.89;100.00
19526;BME280;9907;42.676;26.348;2023-01-23T07:38:33;100097.56;;;7.89;100.00
19526;BME280;9907;42.676;26.348;2023-01-23T07:40:59;100099.56;;;8.00;100.00
19526;BME280;9907;42.676;26.348;2023-01-23T07:43:25;100104.69;;;8.03;100.00
19526;BME280;9907;42.676;26.348;2023-01-23T07:45:50;100102.69;;;8.06;100.00
19526;BME280;9907;42.676;26.348;2023-01-23T07:48:16;100099.94;;;8.08;100.00
19526;BME280;9907;42.676;26.348;2023-01-23T07:50:42;100099.16;;;8.06;100.00
19526;BME280;9907;42.676;26.348;2023-01-23T07:53:08;100101.66;;;8.09;100.00
19526;BME280;9907;42.676;26.348;2023-01-23T07:55:36;100096.00;;;8.13;100.00
19526;BME280;9907;42.676;26.348;2023-01-23T07:58:01;100104.31;;;8.09;100.00
19526;BME280;9907;42.676;26.348;2023-01-23T08:00:27;100100.88;;;8.07;100.00
19526;BME280;9907;42.676;26.348;2023-01-23T08:02:54;100099.72;;;8.11;100.00
19526;BME280;9907;42.676;26.348;2023-01-23T08:05:19;100109.03;;;8.18;100.00
19526;BME280;9907;42.676;26.348;2023-01-23T08:07:45;100106.00;;;8.24;100.00
19526;BME280;9907;42.676;26.348;2023-01-23T08:10:11;100114.47;;;8.45;100.00
19526;BME280;9907;42.676;26.348;2023-01-23T08:12:36;100117.78;;;8.48;100.00
19526;BME280;9907;42.676;26.348;2023-01-23T08:15:02;100112.63;;;8.59;100.00
19526;BME280;9907;42.676;26.348;2023-01-23T08:17:28;100118.66;;;8.49;100.00
19526;BME280;9907;42.676;26.348;2023-01-23T08:19:53;100115.09;;;8.62;100.00
19526;BME280;9907;42.676;26.348;2023-01-23T08:22:19;100126.00;;;8.72;100.00
19526;BME280;9907;42.676;26.348;2023-01-23T08:24:44;100123.38;;;8.85;100.00
19526;BME280;9907;42.676;26.348;2023-01-23T08:27:10;100113.19;;;8.64;100.00
19526;BME280;9907;42.676;26.348;2023-01-23T08:29:35;100121.06;;;8.66;100.00
19526;BME280;9907;42.676;26.348;2023-01-23T08:32:01;100117.97;;;8.45;99.19
19526;BME280;9907;42.676;26.348;2023-01-23T08:34:27;100128.53;;;8.47;100.00
19526;BME280;9907;42.676;26.348;2023-01-23T08:36:52;100130.25;;;8.48;100.00
19526;BME280;9907;42.676;26.348;2023-01-23T08:39:18;100120.25;;;8.51;100.00
19526;BME280;9907;42.676;26.348;2023-01-23T08:41:44;100125.50;;;8.53;99.64
19526;BME280;9907;42.676;26.348;2023-01-23T08:44:10;100125.56;;;8.51;99.10
19526;BME280;9907;42.676;26.348;2023-01-23T08:46:36;100122.34;;;8.46;100.00
19526;BME280;9907;42.676;26.348;2023-01-23T08:49:01;100125.69;;;8.36;100.00
19526;BME280;9907;42.676;26.348;2023-01-23T08:51:29;100122.75;;;8.40;100.00
19526;BME280;9907;42.676;26.348;2023-01-23T08:53:55;100139.28;;;8.45;100.00
19526;BME280;9907;42.676;26.348;2023-01-23T08:56:22;100133.97;;;8.45;100.00
19526;BME280;9907;42.676;26.348;2023-01-23T08:58:49;100128.44;;;8.48;100.00
19526;BME280;9907;42.676;26.348;2023-01-23T09:01:25;100134.16;;;8.42;100.00
19526;BME280;9907;42.676;26.348;2023-01-23T09:03:51;100132.03;;;8.47;100.00
19526;BME280;9907;42.676;26.348;2023-01-23T09:06:19;100130.53;;;8.43;100.00
19526;BME280;9907;42.676;26.348;2023-01-23T09:08:45;100136.25;;;8.37;100.00
19526;BME280;9907;42.676;26.348;2023-01-23T09:11:12;100137.41;;;8.33;100.00
19526;BME280;9907;42.676;26.348;2023-01-23T09:13:38;100137.09;;;8.23;100.00
19526;BME280;9907;42.676;26.348;2023-01-23T09:16:04;100131.31;;;8.31;100.00
19526;BME280;9907;42.676;26.348;2023-01-23T09:18:30;100131.13;;;8.34;100.00
19526;BME280;9907;42.676;26.348;2023-01-23T09:20:57;100123.13;;;8.34;100.00
19526;BME280;9907;42.676;26.348;2023-01-23T09:23:22;100122.81;;;8.24;100.00
19526;BME280;9907;42.676;26.348;2023-01-23T09:25:48;100126.94;;;8.30;100.00
19526;BME280;9907;42.676;26.348;2023-01-23T09:28:14;100114.50;;;8.30;100.00
19526;BME280;9907;42.676;26.348;2023-01-23T09:30:39;100107.25;;;8.32;100.00
19526;BME280;9907;42.676;26.348;2023-01-23T09:33:05;100116.66;;;8.38;100.00
19526;BME280;9907;42.676;26.348;2023-01-23T09:35:31;100118.97;;;8.30;100.00
19526;BME280;9907;42.676;26.348;2023-01-23T09:37:57;100121.34;;;8.35;100.00
19526;BME280;9907;42.676;26.348;2023-01-23T09:40:41;100124.84;;;8.35;100.00
19526;BME280;9907;42.676;26.348;2023-01-23T09:43:14;100120.47;;;8.34;100.00
19526;BME280;9907;42.676;26.348;2023-01-23T09:45:46;100117.53;;;8.39;99.65
19526;BME280;9907;42.676;26.348;2023-01-23T09:48:23;100114.94;;;8.37;100.00
19526;BME280;9907;42.676;26.348;2023-01-23T09:51:07;100113.03;;;8.25;99.09
19526;BME280;9907;42.676;26.348;2023-01-23T09:53:38;100113.88;;;8.25;99.71
19526;BME280;9907;42.676;26.348;2023-01-23T10:01:45;100107.41;;;8.44;99.91
19526;BME280;9907;42.676;26.348;2023-01-23T10:04:11;100104.00;;;8.42;99.12
19526;BME280;9907;42.676;26.348;2023-01-23T10:09:59;100101.63;;;8.37;98.24
19526;BME280;9907;42.676;26.348;2023-01-23T10:15:19;100099.84;;;8.38;97.81
19526;BME280;9907;42.676;26.348;2023-01-23T10:23:39;100091.16;;;8.48;96.32
19526;BME280;9907;42.676;26.348;2023-01-23T10:26:33;100083.38;;;8.45;96.79
19526;BME280;9907;42.676;26.348;2023-01-23T10:29:13;100078.81;;;8.33;97.43
19526;BME280;9907;42.676;26.348;2023-01-23T10:31:58;100083.94;;;8.36;97.11
19526;BME280;9907;42.676;26.348;2023-01-23T10:39:57;100074.66;;;8.29;97.69
19526;BME280;9907;42.676;26.348;2023-01-23T10:42:25;100083.84;;;8.38;96.34
19526;BME280;9907;42.676;26.348;2023-01-23T10:44:51;100074.72;;;8.42;95.85
19526;BME280;9907;42.676;26.348;2023-01-23T10:47:34;100083.50;;;8.29;95.74
19526;BME280;9907;42.676;26.348;2023-01-23T10:50:01;100079.03;;;8.30;94.84
19526;BME280;9907;42.676;26.348;2023-01-23T10:52:35;100080.75;;;8.31;95.88
19526;BME280;9907;42.676;26.348;2023-01-23T10:57:52;100085.53;;;8.24;97.19
19526;BME280;9907;42.676;26.348;2023-01-23T11:00:39;100088.16;;;8.12;97.79
19526;BME280;9907;42.676;26.348;2023-01-23T11:05:56;100087.28;;;8.11;97.29
19526;BME280;9907;42.676;26.348;2023-01-23T11:08:28;100084.34;;;8.16;95.64
19526;BME280;9907;42.676;26.348;2023-01-23T11:13:44;100087.69;;;8.05;96.18
19526;BME280;9907;42.676;26.348;2023-01-23T11:18:41;100089.88;;;8.13;92.77
19526;BME280;9907;42.676;26.348;2023-01-23T11:26:44;100095.47;;;7.94;96.28
19526;BME280;9907;42.676;26.348;2023-01-23T11:29:21;100092.72;;;7.81;97.74
19526;BME280;9907;42.676;26.348;2023-01-23T11:31:50;100086.81;;;8.05;96.18
19526;BME280;9907;42.676;26.348;2023-01-23T11:34:20;100090.44;;;8.04;96.03
19526;BME280;9907;42.676;26.348;2023-01-23T11:37:06;100099.84;;;7.81;95.33
19526;BME280;9907;42.676;26.348;2023-01-23T11:39:38;100100.28;;;7.59;98.06
19526;BME280;9907;42.676;26.348;2023-01-23T11:42:09;100082.25;;;7.64;96.95
19526;BME280;9907;42.676;26.348;2023-01-23T11:44:36;100086.44;;;7.68;96.36
19526;BME280;9907;42.676;26.348;2023-01-23T11:50:21;100088.34;;;7.66;97.54
19526;BME280;9907;42.676;26.348;2023-01-23T11:53:01;100085.41;;;7.71;96.43
19526;BME280;9907;42.676;26.348;2023-01-23T12:01:06;100089.19;;;7.81;94.32
19526;BME280;9907;42.676;26.348;2023-01-23T12:09:30;100105.06;;;7.68;96.49
19526;BME280;9907;42.676;26.348;2023-01-23T12:20:45;100109.78;;;7.63;95.15
19526;BME280;9907;42.676;26.348;2023-01-23T12:25:37;100107.78;;;7.39;98.26
19526;BME280;9907;42.676;26.348;2023-01-23T12:36:53;100111.03;;;7.28;99.04
19526;BME280;9907;42.676;26.348;2023-01-23T12:39:51;100123.97;;;7.34;99.38
19526;BME280;9907;42.676;26.348;2023-01-23T12:42:23;100125.75;;;7.19;100.00
19526;BME280;9907;42.676;26.348;2023-01-23T12:45:05;100121.91;;;7.09;100.00
19526;BME280;9907;42.676;26.348;2023-01-23T12:47:49;100120.84;;;7.27;100.00
19526;BME280;9907;42.676;26.348;2023-01-23T12:53:14;100132.94;;;7.17;100.00
19526;BME280;9907;42.676;26.348;2023-01-23T13:07:39;100140.03;;;7.17;98.18
19526;BME280;9907;42.676;26.348;2023-01-23T13:13:28;100150.28;;;7.09;97.61
19526;BME280;9907;42.676;26.348;2023-01-23T13:16:02;100138.53;;;7.13;97.54
19526;BME280;9907;42.676;26.348;2023-01-23T13:18:28;100134.06;;;7.13;97.07
19526;BME280;9907;42.676;26.348;2023-01-23T13:21:14;100146.66;;;7.10;97.34
19526;BME280;9907;42.676;26.348;2023-01-23T13:29:58;100149.75;;;7.02;98.45
19526;BME280;9907;42.676;26.348;2023-01-23T13:32:27;100151.81;;;7.13;98.14
19526;BME280;9907;42.676;26.348;2023-01-23T13:34:53;100148.94;;;7.02;98.77
19526;BME280;9907;42.676;26.348;2023-01-23T13:40:20;100158.94;;;6.97;99.46
19526;BME280;9907;42.676;26.348;2023-01-23T13:42:46;100152.09;;;6.93;100.00
19526;BME280;9907;42.676;26.348;2023-01-23T13:45:22;100156.47;;;6.94;99.71
19526;BME280;9907;42.676;26.348;2023-01-23T13:48:28;100159.38;;;6.89;100.00
19526;BME280;9907;42.676;26.348;2023-01-23T13:51:21;100150.22;;;6.95;99.83
19526;BME280;9907;42.676;26.348;2023-01-23T13:53:49;100158.78;;;7.00;99.77
19526;BME280;9907;42.676;26.348;2023-01-23T13:56:35;100159.56;;;7.02;99.07
19526;BME280;9907;42.676;26.348;2023-01-23T13:59:07;100168.28;;;7.04;100.00
19526;BME280;9907;42.676;26.348;2023-01-23T14:01:40;100157.59;;;6.90;100.00
19526;BME280;9907;42.676;26.348;2023-01-23T14:04:28;100160.06;;;6.93;100.00
19526;BME280;9907;42.676;26.348;2023-01-23T14:10:27;100162.31;;;6.84;100.00
19526;BME280;9907;42.676;26.348;2023-01-23T14:13:19;100169.75;;;6.94;99.42
19526;BME280;9907;42.676;26.348;2023-01-23T14:15:51;100162.91;;;6.90;98.85
19526;BME280;9907;42.676;26.348;2023-01-23T14:18:43;100172.25;;;6.81;99.41
19526;BME280;9907;42.676;26.348;2023-01-23T14:21:23;100184.59;;;6.82;98.12
19526;BME280;9907;42.676;26.348;2023-01-23T14:23:52;100181.00;;;6.83;98.94
19526;BME280;9907;42.676;26.348;2023-01-23T14:26:28;100168.59;;;6.83;99.29
19526;BME280;9907;42.676;26.348;2023-01-23T14:29:00;100169.50;;;6.82;99.59
19526;BME280;9907;42.676;26.348;2023-01-23T14:31:28;100175.06;;;6.94;99.38
19526;BME280;9907;42.676;26.348;2023-01-23T14:34:05;100170.69;;;6.93;99.42
19526;BME280;9907;42.676;26.348;2023-01-23T14:36:34;100175.41;;;6.88;99.40
19526;BME280;9907;42.676;26.348;2023-01-23T14:39:01;100181.25;;;6.78;99.70
19526;BME280;9907;42.676;26.348;2023-01-23T14:41:30;100182.78;;;6.82;100.00
19526;BME280;9907;42.676;26.348;2023-01-23T14:43:57;100173.72;;;6.87;99.26
19526;BME280;9907;42.676;26.348;2023-01-23T14:48:59;100188.09;;;6.82;100.00
19526;BME280;9907;42.676;26.348;2023-01-23T14:51:26;100188.53;;;6.75;100.00
19526;BME280;9907;42.676;26.348;2023-01-23T14:53:57;100177.38;;;6.84;100.00
19526;BME280;9907;42.676;26.348;2023-01-23T14:56:26;100189.56;;;6.72;100.00
19526;BME280;9907;42.676;26.348;2023-01-23T14:58:54;100192.03;;;6.75;100.00
19526;BME280;9907;42.676;26.348;2023-01-23T15:01:21;100188.59;;;6.73;100.00
19526;BME280;9907;42.676;26.348;2023-01-23T15:04:04;100188.34;;;6.78;100.00